createdAt,value
2022-10-22T00:01:00.067Z,14.83
2022-10-22T00:03:27.942Z,17.30
2022-10-22T00:05:55.722Z,18.83
2022-10-22T00:08:24.918Z,14.70
2022-10-22T00:10:52.806Z,16.20
2022-10-22T00:13:21.437Z,14.73
2022-10-22T00:15:49.847Z,16.10
2022-10-22T00:18:17.623Z,12.20
2022-10-22T00:20:45.427Z,15.97
2022-10-22T00:23:13.207Z,17.57
2022-10-22T00:25:42.756Z,15.50
2022-10-22T00:28:11.482Z,14.70
2022-10-22T00:30:39.247Z,15.00
2022-10-22T00:33:07.090Z,13.30
2022-10-22T00:35:34.853Z,13.00
2022-10-22T00:38:02.639Z,11.17
2022-10-22T00:40:30.766Z,14.00
2022-10-22T00:42:59.940Z,15.50
2022-10-22T00:45:28.662Z,13.40
2022-10-22T00:48:00.441Z,10.40
2022-10-22T00:50:34.024Z,12.00
2022-10-22T00:53:03.489Z,12.70
2022-10-22T00:55:33.664Z,11.70
2022-10-22T00:58:04.834Z,11.47
2022-10-22T01:00:33.056Z,12.30
2022-10-22T01:03:01.291Z,12.83
2022-10-22T01:05:30.698Z,12.30
2022-10-22T01:07:58.739Z,13.10
2022-10-22T01:10:39.363Z,12.93
2022-10-22T01:13:18.778Z,15.67
2022-10-22T01:15:54.076Z,13.73
2022-10-22T01:18:29.413Z,14.20
2022-10-22T01:21:09.573Z,15.17
2022-10-22T01:24:00.614Z,14.63
2022-10-22T01:26:42.032Z,14.60
2022-10-22T01:29:14.367Z,12.00
2022-10-22T01:31:46.595Z,14.20
2022-10-22T01:34:17.512Z,12.10
2022-10-22T01:36:46.713Z,12.53
2022-10-22T01:39:16.397Z,14.77
2022-10-22T01:41:45.302Z,11.10
2022-10-22T01:44:26.362Z,15.10
2022-10-22T01:47:04.214Z,15.20
2022-10-22T01:49:43.712Z,16.40
2022-10-22T01:52:23.547Z,13.43
2022-10-22T01:54:56.579Z,12.67
2022-10-22T01:57:34.030Z,9.87
2022-10-22T02:00:08.870Z,11.50
2022-10-22T02:02:44.946Z,13.73
2022-10-22T02:05:17.718Z,11.47
2022-10-22T02:07:48.917Z,12.80
2022-10-22T02:10:18.912Z,14.10
2022-10-22T02:12:51.393Z,13.40
2022-10-22T02:15:22.863Z,13.33
2022-10-22T02:17:52.213Z,10.97
2022-10-22T02:20:24.182Z,13.10
2022-10-22T02:22:52.109Z,11.57
2022-10-22T02:25:22.569Z,11.50
2022-10-22T02:28:02.137Z,15.60
2022-10-22T02:30:34.756Z,16.70
2022-10-22T02:33:07.085Z,11.20
2022-10-22T02:35:36.374Z,14.87
2022-10-22T02:38:04.749Z,12.07
2022-10-22T02:40:33.350Z,11.23
2022-10-22T02:43:01.305Z,12.77
2022-10-22T02:45:29.799Z,11.90
2022-10-22T02:47:59.414Z,14.87
2022-10-22T02:50:27.319Z,12.20
2022-10-22T02:52:55.097Z,15.80
2022-10-22T02:55:23.103Z,16.10
2022-10-22T02:57:50.863Z,13.10
2022-10-22T03:00:19.183Z,13.20
2022-10-22T03:02:47.020Z,15.20
2022-10-22T03:05:16.521Z,12.97
2022-10-22T03:07:44.276Z,16.47
2022-10-22T03:10:12.048Z,14.60
2022-10-22T03:12:39.800Z,16.03
2022-10-22T03:15:08.223Z,14.00
2022-10-22T03:17:36.958Z,15.67
2022-10-22T03:20:05.144Z,14.10
2022-10-22T03:22:36.297Z,14.57
2022-10-22T03:25:08.794Z,15.83
2022-10-22T03:27:38.683Z,13.37
2022-10-22T03:30:08.428Z,15.00
2022-10-22T03:32:36.305Z,15.63
2022-10-22T03:35:05.499Z,16.70
2022-10-22T03:37:35.898Z,14.93
2022-10-22T03:40:05.835Z,13.53
2022-10-22T03:42:33.652Z,14.03
2022-10-22T03:45:02.491Z,14.73
2022-10-22T03:47:30.238Z,16.10
2022-10-22T03:49:58.057Z,14.13
2022-10-22T03:52:25.883Z,12.97
2022-10-22T03:54:55.019Z,14.37
2022-10-22T03:57:22.811Z,13.27
2022-10-22T03:59:51.435Z,13.40
2022-10-22T04:02:19.248Z,15.20
2022-10-22T04:04:46.992Z,14.90
2022-10-22T04:07:14.802Z,13.87
2022-10-22T04:09:42.619Z,12.77
2022-10-22T04:12:11.867Z,12.27
2022-10-22T04:14:39.651Z,13.47
2022-10-22T04:17:07.548Z,11.23
2022-10-22T04:19:35.676Z,12.67
2022-10-22T04:22:03.499Z,14.07
2022-10-22T04:24:32.296Z,13.60
2022-10-22T04:27:00.522Z,14.37
2022-10-22T04:29:29.671Z,13.40
2022-10-22T04:31:57.464Z,10.47
2022-10-22T04:34:28.830Z,14.00
2022-10-22T04:36:56.788Z,13.57
2022-10-22T04:39:24.577Z,14.37
2022-10-22T04:41:52.399Z,13.30
2022-10-22T04:44:20.215Z,12.97
2022-10-22T04:46:50.343Z,13.67
2022-10-22T04:49:18.527Z,14.10
2022-10-22T04:51:46.356Z,14.90
2022-10-22T04:54:15.071Z,14.80
2022-10-22T04:56:43.215Z,16.63
2022-10-22T04:59:14.677Z,13.33
2022-10-22T05:01:43.888Z,17.53
2022-10-22T05:04:16.234Z,15.60
2022-10-22T05:06:45.062Z,14.67
2022-10-22T05:09:15.091Z,21.47
2022-10-22T05:11:48.227Z,19.37
2022-10-22T05:14:17.517Z,23.47
2022-10-22T05:16:48.171Z,20.30
2022-10-22T05:19:21.163Z,17.43
2022-10-22T05:21:48.950Z,14.10
2022-10-22T05:24:17.003Z,15.47
2022-10-22T05:26:44.854Z,20.90
2022-10-22T05:29:12.611Z,22.03
2022-10-22T05:31:41.034Z,16.40
2022-10-22T05:34:08.826Z,13.13
2022-10-22T05:36:38.237Z,15.13
2022-10-22T05:39:06.675Z,13.83
2022-10-22T05:41:36.592Z,14.80
2022-10-22T05:44:05.093Z,13.67
2022-10-22T05:46:36.316Z,12.80
2022-10-22T05:49:06.338Z,13.50
2022-10-22T05:51:36.513Z,15.17
2022-10-22T05:54:08.384Z,13.80
2022-10-22T05:56:36.700Z,13.50
2022-10-22T05:59:04.919Z,11.70
2022-10-22T06:01:35.212Z,13.10
2022-10-22T06:04:06.243Z,11.53
2022-10-22T06:06:36.326Z,10.87
2022-10-22T06:09:11.209Z,13.90
2022-10-22T06:11:39.097Z,12.23
2022-10-22T06:14:07.942Z,16.27
2022-10-22T06:16:35.829Z,20.83
2022-10-22T06:19:04.295Z,13.60
2022-10-22T06:21:32.611Z,13.90
2022-10-22T06:24:01.715Z,13.40
2022-10-22T06:26:31.283Z,17.17
2022-10-22T06:28:59.536Z,16.90
2022-10-22T06:31:28.842Z,13.77
2022-10-22T06:33:57.806Z,15.60
2022-10-22T06:36:26.632Z,19.73
2022-10-22T06:38:55.886Z,19.53
2022-10-22T06:41:28.550Z,17.40
2022-10-22T06:43:59.924Z,13.57
2022-10-22T06:46:27.885Z,16.50
2022-10-22T06:48:57.134Z,13.83
2022-10-22T06:51:26.283Z,14.50
2022-10-22T06:53:54.745Z,14.50
2022-10-22T06:56:24.820Z,13.00
2022-10-22T06:58:54.419Z,15.50
2022-10-22T07:01:28.179Z,13.03
2022-10-22T07:03:56.592Z,14.80
2022-10-22T07:06:26.077Z,15.37
2022-10-22T07:08:54.841Z,15.73
2022-10-22T07:11:25.617Z,22.20
2022-10-22T07:13:55.441Z,16.80
2022-10-22T07:16:29.569Z,17.77
2022-10-22T07:19:00.109Z,12.20
2022-10-22T07:21:27.939Z,21.43
2022-10-22T07:23:56.504Z,15.77
2022-10-22T07:26:25.353Z,15.43
2022-10-22T07:28:53.211Z,15.93
2022-10-22T07:31:21.172Z,15.70
2022-10-22T07:33:50.304Z,14.07
2022-10-22T07:36:18.587Z,15.53
2022-10-22T07:38:46.930Z,12.77
2022-10-22T07:41:14.979Z,14.00
2022-10-22T07:43:43.281Z,16.47
2022-10-22T07:46:11.545Z,14.10
2022-10-22T07:48:39.556Z,15.47
2022-10-22T07:51:09.177Z,13.30
2022-10-22T07:53:37.096Z,12.43
2022-10-22T07:56:06.208Z,13.30
2022-10-22T07:58:34.679Z,13.50
2022-10-22T08:01:05.666Z,11.67
2022-10-22T08:03:34.466Z,11.33
2022-10-22T08:06:02.896Z,11.67
2022-10-22T08:08:32.341Z,11.43
2022-10-22T08:11:01.665Z,13.27
2022-10-22T08:13:31.579Z,13.23
2022-10-22T08:16:00.355Z,16.57
2022-10-22T08:18:28.709Z,14.53
2022-10-22T08:20:56.702Z,12.60
2022-10-22T08:23:26.203Z,11.33
2022-10-22T08:25:58.441Z,14.20
2022-10-22T08:28:28.464Z,17.60
2022-10-22T08:30:56.569Z,15.20
2022-10-22T08:33:24.358Z,17.30
2022-10-22T08:35:52.942Z,12.30
2022-10-22T08:38:21.367Z,17.50
2022-10-22T08:40:52.783Z,17.10
2022-10-22T08:44:08.083Z,14.67
2022-10-22T08:46:55.124Z,14.20
2022-10-22T08:49:25.677Z,18.90
2022-10-22T08:51:54.052Z,18.23
2022-10-22T08:54:33.077Z,12.43
2022-10-22T08:57:17.828Z,15.20
2022-10-22T08:59:48.914Z,17.27
2022-10-22T09:02:36.309Z,20.00
2022-10-22T09:05:17.055Z,16.73
2022-10-22T09:07:50.115Z,13.30
2022-10-22T09:10:20.156Z,20.57
2022-10-22T09:12:49.080Z,15.50
2022-10-22T09:15:21.879Z,15.40
2022-10-22T09:18:00.573Z,14.10
2022-10-22T09:20:35.928Z,16.30
2022-10-22T09:23:18.565Z,13.63
2022-10-22T09:25:46.862Z,13.93
2022-10-22T09:28:14.649Z,14.13
2022-10-22T09:30:44.052Z,15.23
2022-10-22T09:33:14.933Z,14.43
2022-10-22T09:35:47.580Z,16.00
2022-10-22T09:38:17.896Z,14.77
2022-10-22T09:40:48.291Z,17.30
2022-10-22T09:43:16.496Z,13.67
2022-10-22T09:45:47.196Z,14.20
2022-10-22T09:48:21.513Z,15.77
2022-10-22T09:50:51.116Z,13.03
2022-10-22T09:53:22.713Z,15.67
2022-10-22T09:55:53.844Z,15.87
2022-10-22T09:58:22.019Z,13.70
2022-10-22T10:00:54.765Z,17.30
2022-10-22T10:03:24.499Z,12.13
2022-10-22T10:05:54.395Z,12.93
2022-10-22T10:08:23.212Z,13.07
2022-10-22T10:10:53.786Z,16.33
2022-10-22T10:13:49.649Z,19.20
2022-10-22T10:16:31.545Z,14.37
2022-10-22T10:19:18.479Z,14.93
2022-10-22T10:21:55.688Z,17.07
2022-10-22T10:24:30.879Z,13.10
2022-10-22T10:27:03.578Z,16.57
2022-10-22T10:29:47.417Z,12.10
2022-10-22T10:32:28.827Z,14.40
2022-10-22T10:35:08.719Z,14.90
2022-10-22T10:37:43.777Z,13.50
2022-10-22T10:40:22.992Z,13.70
2022-10-22T10:43:01.233Z,15.90
2022-10-22T10:45:38.089Z,12.27
2022-10-22T10:48:19.818Z,16.23
2022-10-22T10:51:03.828Z,16.10
2022-10-22T10:53:48.643Z,12.67
2022-10-22T10:56:33.455Z,13.40
2022-10-22T10:59:14.905Z,13.30
2022-10-22T11:02:00.643Z,12.80
2022-10-22T11:04:51.625Z,11.87
2022-10-22T11:07:34.382Z,14.30
2022-10-22T11:10:10.814Z,14.80
2022-10-22T11:12:43.431Z,20.07
2022-10-22T11:15:23.800Z,16.90
2022-10-22T11:17:54.083Z,18.33
2022-10-22T11:20:28.591Z,13.90
2022-10-22T11:23:18.997Z,17.50
2022-10-22T11:25:50.312Z,14.10
2022-10-22T11:28:24.745Z,12.60
2022-10-22T11:30:59.275Z,13.37
2022-10-22T11:33:34.158Z,10.97
2022-10-22T11:36:05.835Z,14.60
2022-10-22T11:38:35.695Z,16.07
2022-10-22T11:41:08.362Z,10.07
2022-10-22T11:43:56.904Z,12.27
2022-10-22T11:46:34.950Z,14.57
2022-10-22T11:49:05.672Z,12.83
2022-10-22T11:51:36.967Z,14.67
2022-10-22T11:54:43.257Z,12.03
2022-10-22T11:57:21.468Z,13.60
2022-10-22T11:59:52.423Z,18.70
2022-10-22T12:02:32.896Z,15.57
2022-10-22T12:05:34.934Z,12.77
2022-10-22T12:08:17.008Z,17.63
2022-10-22T12:10:59.275Z,17.40
2022-10-22T12:13:29.239Z,12.97
2022-10-22T12:15:59.796Z,21.60
2022-10-22T12:18:33.319Z,16.63
2022-10-22T12:21:01.251Z,14.80
2022-10-22T12:23:35.115Z,13.63
2022-10-22T12:26:04.728Z,14.03
2022-10-22T12:28:40.802Z,14.50
2022-10-22T12:31:17.163Z,13.53
2022-10-22T12:33:45.216Z,16.60
2022-10-22T12:36:19.586Z,14.13
2022-10-22T12:38:49.271Z,18.80
2022-10-22T12:41:17.056Z,14.23
2022-10-22T12:43:45.444Z,18.97
2022-10-22T12:46:15.114Z,14.77
2022-10-22T12:48:45.555Z,14.53
2022-10-22T12:51:17.967Z,16.87
2022-10-22T12:53:50.264Z,20.60
2022-10-22T12:56:23.161Z,16.53
2022-10-22T12:58:56.255Z,17.20
2022-10-22T13:01:27.607Z,19.80
2022-10-22T13:04:06.916Z,18.17
2022-10-22T13:06:36.284Z,16.77
2022-10-22T13:09:13.324Z,14.93
2022-10-22T13:11:43.117Z,16.07
2022-10-22T13:14:22.312Z,13.50
2022-10-22T13:17:12.219Z,14.87
2022-10-22T13:19:43.860Z,14.00
2022-10-22T13:22:31.219Z,16.53
2022-10-22T13:25:04.689Z,14.37
2022-10-22T13:27:33.043Z,16.33
2022-10-22T13:30:04.031Z,25.60
2022-10-22T13:32:34.675Z,16.63
2022-10-22T13:35:04.318Z,17.70
2022-10-22T13:37:35.531Z,19.63
2022-10-22T13:40:11.966Z,39.57
2022-10-22T13:42:41.157Z,32.63
2022-10-22T13:45:09.842Z,21.33
2022-10-22T13:47:37.862Z,13.90
2022-10-22T13:50:14.617Z,16.60
2022-10-22T13:52:46.208Z,26.13
2022-10-22T13:55:18.119Z,21.73
2022-10-22T13:57:46.824Z,14.17
2022-10-22T14:00:16.961Z,18.90
2022-10-22T14:02:45.711Z,14.80
2022-10-22T14:05:14.114Z,16.97
2022-10-22T14:07:42.219Z,15.90
2022-10-22T14:10:20.189Z,15.97
2022-10-22T14:12:52.381Z,19.90
2022-10-22T14:15:23.870Z,21.30
2022-10-22T14:17:57.402Z,21.17
2022-10-22T14:20:27.562Z,27.87
2022-10-22T14:22:55.945Z,18.20
2022-10-22T14:25:26.771Z,19.90
2022-10-22T14:27:54.714Z,20.73
2022-10-22T14:30:24.145Z,20.57
2022-10-22T14:32:52.589Z,15.67
2022-10-22T14:35:22.721Z,21.40
2022-10-22T14:37:50.938Z,18.27
2022-10-22T14:40:21.154Z,21.10
2022-10-22T14:42:50.389Z,17.93
2022-10-22T14:45:21.932Z,17.33
2022-10-22T14:47:50.364Z,19.47
2022-10-22T14:50:19.417Z,15.80
2022-10-22T14:52:47.261Z,18.87
2022-10-22T14:55:16.829Z,19.43
2022-10-22T14:57:45.228Z,18.10
2022-10-22T15:00:17.635Z,17.20
2022-10-22T15:02:46.190Z,16.23
2022-10-22T15:05:14.217Z,15.37
2022-10-22T15:07:42.782Z,17.40
2022-10-22T15:10:11.136Z,25.30
2022-10-22T15:12:38.937Z,22.30
2022-10-22T15:15:08.216Z,22.00
2022-10-22T15:17:37.380Z,19.63
2022-10-22T15:20:06.213Z,20.00
2022-10-22T15:22:35.555Z,18.43
2022-10-22T15:25:06.122Z,19.90
2022-10-22T15:27:34.014Z,19.63
2022-10-22T15:32:32.248Z,20.80
2022-10-22T15:35:05.926Z,20.93
2022-10-22T15:37:33.737Z,15.60
2022-10-22T15:40:03.660Z,17.77
2022-10-22T15:42:31.556Z,20.53
2022-10-22T15:45:00.184Z,21.80
2022-10-22T15:47:29.500Z,23.13
2022-10-22T15:49:58.345Z,24.90
2022-10-22T15:52:27.604Z,25.27
2022-10-22T15:54:55.513Z,25.17
2022-10-22T15:57:23.345Z,22.60
2022-10-22T15:59:51.870Z,25.27
2022-10-22T16:02:19.792Z,22.93
2022-10-22T16:04:47.900Z,19.90
2022-10-22T16:07:15.693Z,20.27
2022-10-22T16:09:44.816Z,21.23
2022-10-22T16:12:15.266Z,18.00
2022-10-22T16:14:44.999Z,18.97
2022-10-22T16:17:13.078Z,21.00
2022-10-22T16:19:40.817Z,14.50
2022-10-22T16:22:11.516Z,21.10
2022-10-22T16:24:40.355Z,17.67
2022-10-22T16:27:09.911Z,19.90
2022-10-22T16:29:38.789Z,19.83
2022-10-22T16:32:07.495Z,17.70
2022-10-22T16:34:35.330Z,18.30
2022-10-22T16:37:03.090Z,19.63
2022-10-22T16:39:30.917Z,22.57
2022-10-22T16:41:59.693Z,20.93
2022-10-22T16:44:28.900Z,19.40
2022-10-22T16:46:56.692Z,24.80
2022-10-22T16:49:25.101Z,23.00
2022-10-22T16:51:52.881Z,19.63
2022-10-22T16:54:21.755Z,20.27
2022-10-22T16:56:49.765Z,19.97
2022-10-22T16:59:18.556Z,21.30
2022-10-22T17:01:47.737Z,22.30
2022-10-22T17:04:17.221Z,21.33
2022-10-22T17:06:45.673Z,25.77
2022-10-22T17:09:14.241Z,26.63
2022-10-22T17:11:42.573Z,20.97
2022-10-22T17:14:10.898Z,24.77
2022-10-22T17:16:38.673Z,22.23
2022-10-22T17:19:08.042Z,22.20
2022-10-22T17:21:35.919Z,22.97
2022-10-22T17:24:03.716Z,21.60
2022-10-22T17:26:33.189Z,22.60
2022-10-22T17:29:01.610Z,19.43
2022-10-22T17:31:32.529Z,24.30
2022-10-22T17:34:00.815Z,21.13
2022-10-22T17:36:33.436Z,24.50
2022-10-22T17:39:06.137Z,23.00
2022-10-22T17:41:36.118Z,21.90
2022-10-22T17:44:05.797Z,23.00
2022-10-22T17:46:33.915Z,23.43
2022-10-22T17:49:04.330Z,24.43
2022-10-22T17:51:33.851Z,25.57
2022-10-22T17:54:03.477Z,24.03
2022-10-22T17:56:33.912Z,25.00
2022-10-22T17:59:02.935Z,23.40
2022-10-22T18:01:32.636Z,22.53
2022-10-22T18:04:03.391Z,24.30
2022-10-22T18:06:33.077Z,22.83
2022-10-22T18:09:05.776Z,26.43
2022-10-22T18:11:34.304Z,24.30
2022-10-22T18:14:02.528Z,22.30
2022-10-22T18:16:30.423Z,26.13
2022-10-22T18:18:58.826Z,24.97
2022-10-22T18:21:29.355Z,23.27
2022-10-22T18:23:59.971Z,23.97
2022-10-22T18:26:28.946Z,25.60
2022-10-22T18:28:57.998Z,26.57
2022-10-22T18:31:27.696Z,28.13
2022-10-22T18:33:56.388Z,26.43
2022-10-22T18:36:26.426Z,28.60
2022-10-22T18:38:56.393Z,32.60
2022-10-22T18:41:26.526Z,25.50
2022-10-22T18:43:55.664Z,27.17
2022-10-22T18:46:24.001Z,27.93
2022-10-22T18:48:54.052Z,28.27
2022-10-22T18:51:22.518Z,26.43
2022-10-22T18:54:04.591Z,29.53
2022-10-22T18:56:34.782Z,28.60
2022-10-22T18:59:02.532Z,42.23
2022-10-22T19:01:30.822Z,65.37
2022-10-22T19:03:58.672Z,36.97
2022-10-22T19:06:30.507Z,97.63
2022-10-22T19:09:00.667Z,94.97
2022-10-22T19:11:28.764Z,58.20
2022-10-22T19:13:58.050Z,32.40
2022-10-22T19:16:26.839Z,39.10
2022-10-22T19:19:01.296Z,29.63
2022-10-22T19:21:29.281Z,28.60
2022-10-22T19:23:57.532Z,26.10
2022-10-22T19:26:26.527Z,26.93
2022-10-22T19:28:54.892Z,24.73
2022-10-22T19:31:25.599Z,26.93
2022-10-22T19:33:55.296Z,25.63
2022-10-22T19:36:25.345Z,30.03
2022-10-22T19:38:53.219Z,28.10
2022-10-22T19:41:22.584Z,31.20
2022-10-22T19:43:52.588Z,27.53
2022-10-22T19:46:21.462Z,29.23
2022-10-22T19:48:52.255Z,29.70
2022-10-22T19:51:24.603Z,29.13
2022-10-22T19:53:58.608Z,26.97
2022-10-22T19:56:26.481Z,25.20
2022-10-22T19:58:54.399Z,24.57
2022-10-22T20:01:22.629Z,30.20
2022-10-22T20:03:51.870Z,29.20
2022-10-22T20:06:21.742Z,25.67
2022-10-22T20:08:52.355Z,33.80
2022-10-22T20:11:25.995Z,33.90
2022-10-22T20:13:54.823Z,30.93
2022-10-22T20:16:25.120Z,30.67
2022-10-22T20:18:54.280Z,31.10
2022-10-22T20:21:22.731Z,32.77
2022-10-22T20:23:54.082Z,30.47
2022-10-22T20:26:23.801Z,36.80
2022-10-22T20:28:51.851Z,31.70
2022-10-22T20:31:21.279Z,31.33
2022-10-22T20:33:50.354Z,29.90
2022-10-22T20:36:21.244Z,24.90
2022-10-22T20:38:49.302Z,30.63
2022-10-22T20:41:18.994Z,31.60
2022-10-22T20:43:47.992Z,30.93
2022-10-22T20:46:18.604Z,31.17
2022-10-22T20:48:46.745Z,34.30
2022-10-22T20:51:14.925Z,31.90
2022-10-22T20:53:44.354Z,34.80
2022-10-22T20:56:13.015Z,33.60
2022-10-22T20:58:46.354Z,34.07
2022-10-22T21:01:20.449Z,37.50
2022-10-22T21:03:49.182Z,33.50
2022-10-22T21:06:17.216Z,32.70
2022-10-22T21:08:46.467Z,33.07
2022-10-22T21:11:14.268Z,33.97
2022-10-22T21:13:42.124Z,29.87
2022-10-22T21:16:11.148Z,30.93
2022-10-22T21:18:39.467Z,53.60
2022-10-22T21:21:08.315Z,57.20
2022-10-22T21:23:36.978Z,37.10
2022-10-22T21:26:07.306Z,35.40
2022-10-22T21:28:37.042Z,36.00
2022-10-22T21:31:06.201Z,33.07
2022-10-22T21:33:36.598Z,35.30
2022-10-22T21:36:05.178Z,38.50
2022-10-22T21:38:33.360Z,34.47
2022-10-22T21:41:06.637Z,41.40
2022-10-22T21:43:34.473Z,34.87
2022-10-22T21:46:08.192Z,40.20
2022-10-22T21:48:37.003Z,45.53
2022-10-22T21:51:09.014Z,53.87
2022-10-22T21:53:37.100Z,41.90
2022-10-22T21:56:07.476Z,38.60
2022-10-22T21:58:36.207Z,38.77
2022-10-22T22:01:04.857Z,40.87
2022-10-22T22:03:32.720Z,37.17
2022-10-22T22:06:01.506Z,34.90
2022-10-22T22:08:29.899Z,36.07
2022-10-22T22:11:02.598Z,32.13
2022-10-22T22:13:32.023Z,39.03
2022-10-22T22:16:03.282Z,37.80
2022-10-22T22:18:31.754Z,42.20
2022-10-22T22:21:01.076Z,39.17
2022-10-22T22:23:28.883Z,41.10
2022-10-22T22:25:59.708Z,39.47
2022-10-22T22:28:27.728Z,35.33
2022-10-22T22:30:57.067Z,38.07
2022-10-22T22:33:25.118Z,34.80
2022-10-22T22:35:52.940Z,35.40
2022-10-22T22:38:20.717Z,32.70
2022-10-22T22:40:48.517Z,32.23
2022-10-22T22:43:16.360Z,31.20
2022-10-22T22:45:44.113Z,32.53
2022-10-22T22:48:13.284Z,33.00
2022-10-22T22:50:41.023Z,29.87
2022-10-22T22:53:08.856Z,30.77
2022-10-22T22:55:36.626Z,31.17
2022-10-22T22:58:04.426Z,29.90
2022-10-22T23:00:32.301Z,31.20
2022-10-22T23:03:00.141Z,36.87
2022-10-22T23:05:29.612Z,36.70
2022-10-22T23:07:57.620Z,43.43
2022-10-22T23:10:25.401Z,36.70
2022-10-22T23:12:53.583Z,38.90
2022-10-22T23:15:21.355Z,38.33
2022-10-22T23:17:49.145Z,38.57
2022-10-22T23:20:17.121Z,37.87
2022-10-22T23:22:46.289Z,34.97
2022-10-22T23:25:14.234Z,36.20
2022-10-22T23:27:42.209Z,38.00
2022-10-22T23:30:11.173Z,36.73
2022-10-22T23:32:39.043Z,34.03
2022-10-22T23:35:07.246Z,35.93
2022-10-22T23:37:35.079Z,33.20
2022-10-22T23:40:04.896Z,33.20
2022-10-22T23:42:32.791Z,34.33
2022-10-22T23:45:00.672Z,35.13
2022-10-22T23:47:28.501Z,31.03
2022-10-22T23:49:56.343Z,31.63
2022-10-22T23:52:24.233Z,31.87
2022-10-22T23:54:52.074Z,31.63
2022-10-22T23:57:21.269Z,29.70
2022-10-22T23:59:49.010Z,32.43
